sensor_id;sensor_type;location;lat;lon;timestamp;P1;durP1;ratioP1;P2;durP2;ratioP2
18286;SDS011;9269;50.838;12.094;2023-11-21T00:01:41;4.40;;;3.23;;
18286;SDS011;9269;50.838;12.094;2023-11-21T00:04:10;8.10;;;3.40;;
18286;SDS011;9269;50.838;12.094;2023-11-21T00:06:39;3.17;;;2.73;;
18286;SDS011;9269;50.838;12.094;2023-11-21T00:09:07;6.57;;;3.37;;
18286;SDS011;9269;50.838;12.094;2023-11-21T00:11:36;5.83;;;3.60;;
18286;SDS011;9269;50.838;12.094;2023-11-21T00:14:05;4.77;;;3.30;;
18286;SDS011;9269;50.838;12.094;2023-11-21T00:16:36;4.73;;;3.40;;
18286;SDS011;9269;50.838;12.094;2023-11-21T00:19:04;4.30;;;2.80;;
18286;SDS011;9269;50.838;12.094;2023-11-21T00:21:33;5.57;;;2.97;;
18286;SDS011;9269;50.838;12.094;2023-11-21T00:24:02;4.73;;;3.10;;
18286;SDS011;9269;50.838;12.094;2023-11-21T00:26:30;3.97;;;2.80;;
18286;SDS011;9269;50.838;12.094;2023-11-21T00:29:03;5.47;;;2.70;;
18286;SDS011;9269;50.838;12.094;2023-11-21T00:31:36;4.13;;;2.50;;
18286;SDS011;9269;50.838;12.094;2023-11-21T00:34:07;3.07;;;2.40;;
18286;SDS011;9269;50.838;12.094;2023-11-21T00:36:36;3.73;;;2.30;;
18286;SDS011;9269;50.838;12.094;2023-11-21T00:39:04;3.27;;;2.50;;
18286;SDS011;9269;50.838;12.094;2023-11-21T00:41:33;3.03;;;2.40;;
18286;SDS011;9269;50.838;12.094;2023-11-21T00:44:04;4.83;;;2.80;;
18286;SDS011;9269;50.838;12.094;2023-11-21T00:46:33;4.77;;;3.40;;
18286;SDS011;9269;50.838;12.094;2023-11-21T00:49:03;5.83;;;3.97;;
18286;SDS011;9269;50.838;12.094;2023-11-21T00:51:32;5.57;;;3.67;;
18286;SDS011;9269;50.838;12.094;2023-11-21T00:54:01;5.67;;;4.07;;
18286;SDS011;9269;50.838;12.094;2023-11-21T00:56:29;6.63;;;4.30;;
18286;SDS011;9269;50.838;12.094;2023-11-21T00:58:58;5.83;;;4.10;;
18286;SDS011;9269;50.838;12.094;2023-11-21T01:01:27;5.90;;;4.67;;
18286;SDS011;9269;50.838;12.094;2023-11-21T01:03:56;5.70;;;5.10;;
18286;SDS011;9269;50.838;12.094;2023-11-21T01:06:25;7.30;;;5.07;;
18286;SDS011;9269;50.838;12.094;2023-11-21T01:08:53;5.93;;;4.50;;
18286;SDS011;9269;50.838;12.094;2023-11-21T01:11:22;6.13;;;5.10;;
18286;SDS011;9269;50.838;12.094;2023-11-21T01:13:50;4.80;;;4.20;;
18286;SDS011;9269;50.838;12.094;2023-11-21T01:16:20;5.33;;;4.23;;
18286;SDS011;9269;50.838;12.094;2023-11-21T01:18:48;5.93;;;3.93;;
18286;SDS011;9269;50.838;12.094;2023-11-21T01:21:18;5.67;;;3.97;;
18286;SDS011;9269;50.838;12.094;2023-11-21T01:23:47;6.10;;;3.63;;
18286;SDS011;9269;50.838;12.094;2023-11-21T01:26:16;4.60;;;3.50;;
18286;SDS011;9269;50.838;12.094;2023-11-21T01:28:44;6.63;;;4.00;;
18286;SDS011;9269;50.838;12.094;2023-11-21T01:31:15;5.70;;;3.87;;
18286;SDS011;9269;50.838;12.094;2023-11-21T01:33:44;4.53;;;3.47;;
18286;SDS011;9269;50.838;12.094;2023-11-21T01:36:12;6.13;;;3.87;;
18286;SDS011;9269;50.838;12.094;2023-11-21T01:38:42;6.07;;;3.80;;
18286;SDS011;9269;50.838;12.094;2023-11-21T01:41:11;3.43;;;3.00;;
18286;SDS011;9269;50.838;12.094;2023-11-21T01:43:40;4.67;;;3.30;;
18286;SDS011;9269;50.838;12.094;2023-11-21T01:46:09;4.60;;;3.00;;
18286;SDS011;9269;50.838;12.094;2023-11-21T01:48:38;6.13;;;3.10;;
18286;SDS011;9269;50.838;12.094;2023-11-21T01:51:06;4.93;;;2.90;;
18286;SDS011;9269;50.838;12.094;2023-11-21T01:53:35;4.87;;;3.23;;
18286;SDS011;9269;50.838;12.094;2023-11-21T01:56:05;4.73;;;3.30;;
18286;SDS011;9269;50.838;12.094;2023-11-21T01:58:36;5.87;;;3.30;;
18286;SDS011;9269;50.838;12.094;2023-11-21T02:01:05;5.27;;;3.40;;
18286;SDS011;9269;50.838;12.094;2023-11-21T02:03:36;5.13;;;3.33;;
18286;SDS011;9269;50.838;12.094;2023-11-21T02:06:05;5.60;;;3.40;;
18286;SDS011;9269;50.838;12.094;2023-11-21T02:08:35;4.93;;;3.37;;
18286;SDS011;9269;50.838;12.094;2023-11-21T02:11:06;4.10;;;2.93;;
18286;SDS011;9269;50.838;12.094;2023-11-21T02:13:34;4.03;;;2.97;;
18286;SDS011;9269;50.838;12.094;2023-11-21T02:16:07;5.40;;;3.13;;
18286;SDS011;9269;50.838;12.094;2023-11-21T02:18:36;4.30;;;2.93;;
18286;SDS011;9269;50.838;12.094;2023-11-21T02:21:05;5.97;;;4.00;;
18286;SDS011;9269;50.838;12.094;2023-11-21T02:23:36;4.17;;;3.03;;
18286;SDS011;9269;50.838;12.094;2023-11-21T02:26:08;5.87;;;3.70;;
18286;SDS011;9269;50.838;12.094;2023-11-21T02:28:37;5.60;;;3.30;;
18286;SDS011;9269;50.838;12.094;2023-11-21T02:31:05;5.57;;;3.67;;
18286;SDS011;9269;50.838;12.094;2023-11-21T02:33:35;9.00;;;3.70;;
18286;SDS011;9269;50.838;12.094;2023-11-21T02:36:04;3.83;;;3.07;;
18286;SDS011;9269;50.838;12.094;2023-11-21T02:38:32;4.93;;;3.00;;
18286;SDS011;9269;50.838;12.094;2023-11-21T02:41:02;7.20;;;3.70;;
18286;SDS011;9269;50.838;12.094;2023-11-21T02:43:30;6.20;;;3.20;;
18286;SDS011;9269;50.838;12.094;2023-11-21T02:45:59;5.93;;;3.00;;
18286;SDS011;9269;50.838;12.094;2023-11-21T02:48:28;4.83;;;3.07;;
18286;SDS011;9269;50.838;12.094;2023-11-21T02:50:57;4.43;;;3.10;;
18286;SDS011;9269;50.838;12.094;2023-11-21T02:53:26;5.07;;;3.07;;
18286;SDS011;9269;50.838;12.094;2023-11-21T02:55:54;3.83;;;2.80;;
18286;SDS011;9269;50.838;12.094;2023-11-21T02:58:24;5.67;;;3.77;;
18286;SDS011;9269;50.838;12.094;2023-11-21T03:00:52;4.50;;;3.20;;
18286;SDS011;9269;50.838;12.094;2023-11-21T03:03:20;5.33;;;3.27;;
18286;SDS011;9269;50.838;12.094;2023-11-21T03:05:50;6.30;;;3.60;;
18286;SDS011;9269;50.838;12.094;2023-11-21T03:08:19;5.73;;;4.40;;
18286;SDS011;9269;50.838;12.094;2023-11-21T03:10:47;5.23;;;3.77;;
18286;SDS011;9269;50.838;12.094;2023-11-21T03:13:16;5.43;;;3.73;;
18286;SDS011;9269;50.838;12.094;2023-11-21T03:15:46;5.13;;;3.53;;
18286;SDS011;9269;50.838;12.094;2023-11-21T03:18:14;4.30;;;3.50;;
18286;SDS011;9269;50.838;12.094;2023-11-21T03:20:43;4.00;;;3.20;;
18286;SDS011;9269;50.838;12.094;2023-11-21T03:23:13;7.00;;;3.00;;
18286;SDS011;9269;50.838;12.094;2023-11-21T03:25:42;5.07;;;2.93;;
18286;SDS011;9269;50.838;12.094;2023-11-21T03:28:10;4.97;;;3.20;;
18286;SDS011;9269;50.838;12.094;2023-11-21T03:30:39;4.83;;;2.60;;
18286;SDS011;9269;50.838;12.094;2023-11-21T03:33:09;4.20;;;2.97;;
18286;SDS011;9269;50.838;12.094;2023-11-21T03:35:38;4.67;;;2.90;;
18286;SDS011;9269;50.838;12.094;2023-11-21T03:38:09;3.60;;;2.30;;
18286;SDS011;9269;50.838;12.094;2023-11-21T03:40:39;3.33;;;2.33;;
18286;SDS011;9269;50.838;12.094;2023-11-21T03:43:07;3.37;;;2.43;;
18286;SDS011;9269;50.838;12.094;2023-11-21T03:45:36;3.03;;;2.30;;
18286;SDS011;9269;50.838;12.094;2023-11-21T03:48:07;2.63;;;2.20;;
18286;SDS011;9269;50.838;12.094;2023-11-21T03:50:40;3.47;;;2.50;;
18286;SDS011;9269;50.838;12.094;2023-11-21T03:53:09;3.90;;;2.67;;
18286;SDS011;9269;50.838;12.094;2023-11-21T03:55:37;6.90;;;2.40;;
18286;SDS011;9269;50.838;12.094;2023-11-21T03:58:06;5.03;;;2.50;;
18286;SDS011;9269;50.838;12.094;2023-11-21T04:00:34;3.63;;;2.60;;
18286;SDS011;9269;50.838;12.094;2023-11-21T04:03:03;2.37;;;2.03;;
18286;SDS011;9269;50.838;12.094;2023-11-21T04:05:34;3.00;;;2.50;;
18286;SDS011;9269;50.838;12.094;2023-11-21T04:08:02;3.83;;;2.40;;
18286;SDS011;9269;50.838;12.094;2023-11-21T04:10:32;3.33;;;2.47;;
18286;SDS011;9269;50.838;12.094;2023-11-21T04:13:01;3.03;;;2.37;;
18286;SDS011;9269;50.838;12.094;2023-11-21T04:15:29;3.47;;;2.37;;
18286;SDS011;9269;50.838;12.094;2023-11-21T04:17:58;3.43;;;2.53;;
18286;SDS011;9269;50.838;12.094;2023-11-21T04:20:26;3.57;;;2.70;;
18286;SDS011;9269;50.838;12.094;2023-11-21T04:22:58;2.90;;;2.70;;
18286;SDS011;9269;50.838;12.094;2023-11-21T04:25:27;2.27;;;2.07;;
18286;SDS011;9269;50.838;12.094;2023-11-21T04:27:55;3.83;;;2.57;;
18286;SDS011;9269;50.838;12.094;2023-11-21T04:30:23;4.17;;;2.97;;
18286;SDS011;9269;50.838;12.094;2023-11-21T04:32:52;3.27;;;2.80;;
18286;SDS011;9269;50.838;12.094;2023-11-21T04:35:20;5.07;;;2.80;;
18286;SDS011;9269;50.838;12.094;2023-11-21T04:37:49;3.27;;;2.67;;
18286;SDS011;9269;50.838;12.094;2023-11-21T04:40:20;3.40;;;3.00;;
18286;SDS011;9269;50.838;12.094;2023-11-21T04:42:52;4.77;;;2.63;;
18286;SDS011;9269;50.838;12.094;2023-11-21T04:45:21;2.90;;;2.60;;
18286;SDS011;9269;50.838;12.094;2023-11-21T04:47:50;3.37;;;2.87;;
18286;SDS011;9269;50.838;12.094;2023-11-21T04:50:19;2.90;;;2.60;;
18286;SDS011;9269;50.838;12.094;2023-11-21T04:52:48;3.03;;;2.40;;
18286;SDS011;9269;50.838;12.094;2023-11-21T04:55:16;3.17;;;2.23;;
18286;SDS011;9269;50.838;12.094;2023-11-21T04:57:46;4.40;;;2.37;;
18286;SDS011;9269;50.838;12.094;2023-11-21T05:00:14;2.33;;;1.93;;
18286;SDS011;9269;50.838;12.094;2023-11-21T05:02:44;3.77;;;2.40;;
18286;SDS011;9269;50.838;12.094;2023-11-21T05:05:13;2.90;;;2.40;;
18286;SDS011;9269;50.838;12.094;2023-11-21T05:07:41;3.70;;;2.00;;
18286;SDS011;9269;50.838;12.094;2023-11-21T05:10:10;3.10;;;2.40;;
18286;SDS011;9269;50.838;12.094;2023-11-21T05:12:41;2.53;;;2.00;;
18286;SDS011;9269;50.838;12.094;2023-11-21T05:15:12;2.90;;;2.00;;
18286;SDS011;9269;50.838;12.094;2023-11-21T05:17:43;3.77;;;2.33;;
18286;SDS011;9269;50.838;12.094;2023-11-21T05:20:13;2.53;;;2.33;;
18286;SDS011;9269;50.838;12.094;2023-11-21T05:22:45;2.77;;;2.50;;
18286;SDS011;9269;50.838;12.094;2023-11-21T05:25:14;2.97;;;2.67;;
18286;SDS011;9269;50.838;12.094;2023-11-21T05:27:45;3.63;;;2.50;;
18286;SDS011;9269;50.838;12.094;2023-11-21T05:30:15;3.97;;;2.37;;
18286;SDS011;9269;50.838;12.094;2023-11-21T05:32:43;2.67;;;2.43;;
18286;SDS011;9269;50.838;12.094;2023-11-21T05:35:13;2.63;;;2.40;;
18286;SDS011;9269;50.838;12.094;2023-11-21T05:37:44;3.33;;;2.37;;
18286;SDS011;9269;50.838;12.094;2023-11-21T05:40:14;4.13;;;2.10;;
18286;SDS011;9269;50.838;12.094;2023-11-21T05:42:43;3.53;;;2.30;;
18286;SDS011;9269;50.838;12.094;2023-11-21T05:45:12;3.70;;;2.60;;
18286;SDS011;9269;50.838;12.094;2023-11-21T05:47:43;2.63;;;2.43;;
18286;SDS011;9269;50.838;12.094;2023-11-21T05:50:14;3.80;;;2.10;;
18286;SDS011;9269;50.838;12.094;2023-11-21T05:52:44;3.00;;;2.30;;
18286;SDS011;9269;50.838;12.094;2023-11-21T05:55:15;2.50;;;2.30;;
18286;SDS011;9269;50.838;12.094;2023-11-21T05:57:44;3.20;;;2.80;;
18286;SDS011;9269;50.838;12.094;2023-11-21T06:00:14;2.43;;;2.23;;
18286;SDS011;9269;50.838;12.094;2023-11-21T06:02:49;3.13;;;2.70;;
18286;SDS011;9269;50.838;12.094;2023-11-21T06:05:20;3.07;;;2.40;;
18286;SDS011;9269;50.838;12.094;2023-11-21T06:08:11;3.63;;;2.50;;
18286;SDS011;9269;50.838;12.094;2023-11-21T06:10:41;4.97;;;2.73;;
18286;SDS011;9269;50.838;12.094;2023-11-21T06:13:11;2.63;;;2.43;;
18286;SDS011;9269;50.838;12.094;2023-11-21T06:15:41;6.13;;;2.77;;
18286;SDS011;9269;50.838;12.094;2023-11-21T06:18:12;3.33;;;2.70;;
18286;SDS011;9269;50.838;12.094;2023-11-21T06:20:41;4.47;;;3.13;;
18286;SDS011;9269;50.838;12.094;2023-11-21T06:23:10;3.27;;;2.70;;
18286;SDS011;9269;50.838;12.094;2023-11-21T06:25:38;5.17;;;2.73;;
18286;SDS011;9269;50.838;12.094;2023-11-21T06:28:07;5.00;;;2.67;;
18286;SDS011;9269;50.838;12.094;2023-11-21T06:30:51;4.63;;;3.00;;
18286;SDS011;9269;50.838;12.094;2023-11-21T06:33:22;6.47;;;2.90;;
18286;SDS011;9269;50.838;12.094;2023-11-21T06:35:51;3.57;;;2.90;;
18286;SDS011;9269;50.838;12.094;2023-11-21T06:38:20;4.80;;;2.63;;
18286;SDS011;9269;50.838;12.094;2023-11-21T06:40:50;5.23;;;2.77;;
18286;SDS011;9269;50.838;12.094;2023-11-21T06:43:19;6.83;;;2.80;;
18286;SDS011;9269;50.838;12.094;2023-11-21T06:45:49;3.97;;;2.90;;
18286;SDS011;9269;50.838;12.094;2023-11-21T06:48:18;4.73;;;3.00;;
18286;SDS011;9269;50.838;12.094;2023-11-21T06:50:48;6.00;;;2.93;;
18286;SDS011;9269;50.838;12.094;2023-11-21T06:53:19;4.73;;;2.63;;
18286;SDS011;9269;50.838;12.094;2023-11-21T06:55:47;3.27;;;2.97;;
18286;SDS011;9269;50.838;12.094;2023-11-21T06:58:15;4.43;;;3.00;;
18286;SDS011;9269;50.838;12.094;2023-11-21T07:00:44;3.97;;;2.83;;
18286;SDS011;9269;50.838;12.094;2023-11-21T07:03:19;4.10;;;3.63;;
18286;SDS011;9269;50.838;12.094;2023-11-21T07:05:48;4.97;;;3.60;;
18286;SDS011;9269;50.838;12.094;2023-11-21T07:08:17;3.57;;;3.10;;
18286;SDS011;9269;50.838;12.094;2023-11-21T07:10:46;5.90;;;3.90;;
18286;SDS011;9269;50.838;12.094;2023-11-21T07:13:14;5.60;;;3.90;;
18286;SDS011;9269;50.838;12.094;2023-11-21T07:15:43;4.53;;;3.60;;
18286;SDS011;9269;50.838;12.094;2023-11-21T07:18:11;5.93;;;3.70;;
18286;SDS011;9269;50.838;12.094;2023-11-21T07:20:40;4.97;;;3.80;;
18286;SDS011;9269;50.838;12.094;2023-11-21T07:23:10;4.90;;;3.60;;
18286;SDS011;9269;50.838;12.094;2023-11-21T07:25:38;5.77;;;4.13;;
18286;SDS011;9269;50.838;12.094;2023-11-21T07:28:08;6.50;;;4.87;;
18286;SDS011;9269;50.838;12.094;2023-11-21T07:30:37;5.80;;;5.17;;
18286;SDS011;9269;50.838;12.094;2023-11-21T07:33:06;7.67;;;5.27;;
18286;SDS011;9269;50.838;12.094;2023-11-21T07:35:34;7.10;;;5.37;;
18286;SDS011;9269;50.838;12.094;2023-11-21T07:38:03;7.50;;;5.70;;
18286;SDS011;9269;50.838;12.094;2023-11-21T07:40:33;7.33;;;5.77;;
18286;SDS011;9269;50.838;12.094;2023-11-21T07:43:02;6.97;;;6.27;;
18286;SDS011;9269;50.838;12.094;2023-11-21T07:45:30;9.50;;;6.03;;
18286;SDS011;9269;50.838;12.094;2023-11-21T07:47:59;6.97;;;5.63;;
18286;SDS011;9269;50.838;12.094;2023-11-21T07:50:30;6.63;;;5.33;;
18286;SDS011;9269;50.838;12.094;2023-11-21T07:52:59;8.47;;;5.63;;
18286;SDS011;9269;50.838;12.094;2023-11-21T07:55:32;6.33;;;5.50;;
18286;SDS011;9269;50.838;12.094;2023-11-21T07:58:01;8.40;;;5.27;;
18286;SDS011;9269;50.838;12.094;2023-11-21T08:00:31;8.73;;;5.23;;
18286;SDS011;9269;50.838;12.094;2023-11-21T08:03:00;7.33;;;4.77;;
18286;SDS011;9269;50.838;12.094;2023-11-21T08:05:29;6.60;;;4.17;;
18286;SDS011;9269;50.838;12.094;2023-11-21T08:08:23;5.20;;;4.60;;
18286;SDS011;9269;50.838;12.094;2023-11-21T08:10:53;8.03;;;4.50;;
18286;SDS011;9269;50.838;12.094;2023-11-21T08:13:41;5.13;;;4.50;;
18286;SDS011;9269;50.838;12.094;2023-11-21T08:16:11;8.23;;;4.17;;
18286;SDS011;9269;50.838;12.094;2023-11-21T08:18:41;4.97;;;3.90;;
18286;SDS011;9269;50.838;12.094;2023-11-21T08:21:11;7.27;;;4.57;;
18286;SDS011;9269;50.838;12.094;2023-11-21T08:23:41;4.97;;;3.83;;
18286;SDS011;9269;50.838;12.094;2023-11-21T08:26:12;6.30;;;4.13;;
18286;SDS011;9269;50.838;12.094;2023-11-21T08:28:40;10.13;;;4.80;;
18286;SDS011;9269;50.838;12.094;2023-11-21T08:31:09;7.90;;;4.50;;
18286;SDS011;9269;50.838;12.094;2023-11-21T08:33:40;5.10;;;4.60;;
18286;SDS011;9269;50.838;12.094;2023-11-21T08:36:09;5.87;;;4.80;;
18286;SDS011;9269;50.838;12.094;2023-11-21T08:38:39;6.73;;;4.70;;
18286;SDS011;9269;50.838;12.094;2023-11-21T08:41:08;8.30;;;4.97;;
18286;SDS011;9269;50.838;12.094;2023-11-21T08:43:39;6.57;;;4.53;;
18286;SDS011;9269;50.838;12.094;2023-11-21T08:46:08;7.90;;;4.83;;
18286;SDS011;9269;50.838;12.094;2023-11-21T08:48:37;7.83;;;5.07;;
18286;SDS011;9269;50.838;12.094;2023-11-21T08:51:05;7.03;;;4.97;;
18286;SDS011;9269;50.838;12.094;2023-11-21T08:53:54;7.27;;;5.23;;
18286;SDS011;9269;50.838;12.094;2023-11-21T08:56:26;6.97;;;5.00;;
18286;SDS011;9269;50.838;12.094;2023-11-21T08:58:57;8.47;;;5.73;;
18286;SDS011;9269;50.838;12.094;2023-11-21T09:01:27;11.03;;;6.87;;
18286;SDS011;9269;50.838;12.094;2023-11-21T09:03:58;7.77;;;5.30;;
18286;SDS011;9269;50.838;12.094;2023-11-21T09:06:27;8.63;;;6.53;;
18286;SDS011;9269;50.838;12.094;2023-11-21T09:08:56;9.30;;;6.17;;
18286;SDS011;9269;50.838;12.094;2023-11-21T09:11:24;11.53;;;7.23;;
18286;SDS011;9269;50.838;12.094;2023-11-21T09:13:59;10.90;;;6.63;;
18286;SDS011;9269;50.838;12.094;2023-11-21T09:16:48;8.83;;;6.30;;
18286;SDS011;9269;50.838;12.094;2023-11-21T09:19:18;9.27;;;6.57;;
18286;SDS011;9269;50.838;12.094;2023-11-21T09:21:46;10.93;;;6.40;;
18286;SDS011;9269;50.838;12.094;2023-11-21T09:24:16;7.90;;;7.10;;
18286;SDS011;9269;50.838;12.094;2023-11-21T09:26:45;10.90;;;6.40;;
18286;SDS011;9269;50.838;12.094;2023-11-21T09:29:15;7.87;;;5.40;;
18286;SDS011;9269;50.838;12.094;2023-11-21T09:31:46;9.23;;;6.63;;
18286;SDS011;9269;50.838;12.094;2023-11-21T09:34:18;9.90;;;6.77;;
18286;SDS011;9269;50.838;12.094;2023-11-21T09:36:48;9.43;;;6.50;;
18286;SDS011;9269;50.838;12.094;2023-11-21T09:39:17;7.13;;;6.37;;
18286;SDS011;9269;50.838;12.094;2023-11-21T09:41:49;8.27;;;5.43;;
18286;SDS011;9269;50.838;12.094;2023-11-21T09:44:26;7.47;;;6.67;;
18286;SDS011;9269;50.838;12.094;2023-11-21T09:47:01;7.07;;;5.73;;
18286;SDS011;9269;50.838;12.094;2023-11-21T09:49:30;9.17;;;5.87;;
18286;SDS011;9269;50.838;12.094;2023-11-21T09:52:03;8.80;;;5.70;;
18286;SDS011;9269;50.838;12.094;2023-11-21T09:54:35;7.37;;;6.00;;
18286;SDS011;9269;50.838;12.094;2023-11-21T09:57:04;6.80;;;5.70;;
18286;SDS011;9269;50.838;12.094;2023-11-21T09:59:35;6.47;;;5.40;;
18286;SDS011;9269;50.838;12.094;2023-11-21T10:02:05;8.77;;;5.77;;
18286;SDS011;9269;50.838;12.094;2023-11-21T10:04:40;7.23;;;5.70;;
18286;SDS011;9269;50.838;12.094;2023-11-21T10:07:09;9.50;;;5.97;;
18286;SDS011;9269;50.838;12.094;2023-11-21T10:09:38;6.43;;;5.73;;
18286;SDS011;9269;50.838;12.094;2023-11-21T10:12:07;6.87;;;6.17;;
18286;SDS011;9269;50.838;12.094;2023-11-21T10:14:40;7.73;;;6.07;;
18286;SDS011;9269;50.838;12.094;2023-11-21T10:17:10;6.67;;;5.80;;
18286;SDS011;9269;50.838;12.094;2023-11-21T10:19:43;6.90;;;6.10;;
18286;SDS011;9269;50.838;12.094;2023-11-21T10:22:15;7.60;;;6.33;;
18286;SDS011;9269;50.838;12.094;2023-11-21T10:24:44;10.13;;;6.60;;
18286;SDS011;9269;50.838;12.094;2023-11-21T10:27:20;10.53;;;7.07;;
18286;SDS011;9269;50.838;12.094;2023-11-21T10:29:52;8.60;;;6.77;;
18286;SDS011;9269;50.838;12.094;2023-11-21T10:32:21;10.07;;;7.47;;
18286;SDS011;9269;50.838;12.094;2023-11-21T10:34:56;10.53;;;7.10;;
18286;SDS011;9269;50.838;12.094;2023-11-21T10:37:28;8.83;;;6.70;;
18286;SDS011;9269;50.838;12.094;2023-11-21T10:39:58;8.50;;;7.67;;
18286;SDS011;9269;50.838;12.094;2023-11-21T10:42:28;11.63;;;8.40;;
18286;SDS011;9269;50.838;12.094;2023-11-21T10:44:59;12.30;;;9.10;;
18286;SDS011;9269;50.838;12.094;2023-11-21T10:47:36;14.80;;;9.30;;
18286;SDS011;9269;50.838;12.094;2023-11-21T10:50:07;10.57;;;8.57;;
18286;SDS011;9269;50.838;12.094;2023-11-21T10:52:39;14.30;;;9.83;;
18286;SDS011;9269;50.838;12.094;2023-11-21T10:55:16;14.27;;;9.97;;
18286;SDS011;9269;50.838;12.094;2023-11-21T10:57:51;14.70;;;10.33;;
18286;SDS011;9269;50.838;12.094;2023-11-21T11:00:26;16.90;;;10.90;;
18286;SDS011;9269;50.838;12.094;2023-11-21T11:02:56;14.47;;;10.67;;
18286;SDS011;9269;50.838;12.094;2023-11-21T11:05:31;14.30;;;11.60;;
18286;SDS011;9269;50.838;12.094;2023-11-21T11:08:05;20.73;;;12.10;;
18286;SDS011;9269;50.838;12.094;2023-11-21T11:10:36;18.20;;;12.47;;
18286;SDS011;9269;50.838;12.094;2023-11-21T11:13:16;16.13;;;11.23;;
18286;SDS011;9269;50.838;12.094;2023-11-21T11:15:53;17.77;;;12.50;;
18286;SDS011;9269;50.838;12.094;2023-11-21T11:18:28;20.57;;;13.33;;
18286;SDS011;9269;50.838;12.094;2023-11-21T11:21:21;20.17;;;13.33;;
18286;SDS011;9269;50.838;12.094;2023-11-21T11:24:15;19.67;;;12.97;;
18286;SDS011;9269;50.838;12.094;2023-11-21T11:27:15;22.70;;;14.43;;
18286;SDS011;9269;50.838;12.094;2023-11-21T11:29:55;20.97;;;14.17;;
18286;SDS011;9269;50.838;12.094;2023-11-21T11:32:34;18.30;;;13.70;;
18286;SDS011;9269;50.838;12.094;2023-11-21T11:35:14;20.87;;;14.10;;
18286;SDS011;9269;50.838;12.094;2023-11-21T11:38:11;20.33;;;13.77;;
18286;SDS011;9269;50.838;12.094;2023-11-21T11:40:44;21.27;;;14.37;;
18286;SDS011;9269;50.838;12.094;2023-11-21T11:43:31;18.60;;;13.13;;
18286;SDS011;9269;50.838;12.094;2023-11-21T11:46:07;18.03;;;13.10;;
18286;SDS011;9269;50.838;12.094;2023-11-21T11:48:38;21.03;;;13.20;;
18286;SDS011;9269;50.838;12.094;2023-11-21T11:51:10;19.47;;;12.43;;
18286;SDS011;9269;50.838;12.094;2023-11-21T11:53:41;14.93;;;11.43;;
18286;SDS011;9269;50.838;12.094;2023-11-21T11:56:23;18.07;;;11.93;;
18286;SDS011;9269;50.838;12.094;2023-11-21T11:58:57;20.43;;;11.57;;
18286;SDS011;9269;50.838;12.094;2023-11-21T12:01:31;17.13;;;10.97;;
18286;SDS011;9269;50.838;12.094;2023-11-21T12:07:01;14.23;;;9.93;;
18286;SDS011;9269;50.838;12.094;2023-11-21T12:09:30;14.53;;;9.60;;
18286;SDS011;9269;50.838;12.094;2023-11-21T12:11:59;13.80;;;9.03;;
18286;SDS011;9269;50.838;12.094;2023-11-21T12:14:30;13.33;;;8.87;;
18286;SDS011;9269;50.838;12.094;2023-11-21T12:16:59;11.70;;;8.43;;
18286;SDS011;9269;50.838;12.094;2023-11-21T12:19:31;10.53;;;8.23;;
18286;SDS011;9269;50.838;12.094;2023-11-21T12:22:00;12.10;;;8.67;;
18286;SDS011;9269;50.838;12.094;2023-11-21T12:24:29;11.83;;;7.80;;
18286;SDS011;9269;50.838;12.094;2023-11-21T12:26:59;10.03;;;7.43;;
18286;SDS011;9269;50.838;12.094;2023-11-21T12:29:27;9.63;;;7.10;;
18286;SDS011;9269;50.838;12.094;2023-11-21T12:31:56;10.30;;;6.40;;
18286;SDS011;9269;50.838;12.094;2023-11-21T12:34:25;7.37;;;6.23;;
18286;SDS011;9269;50.838;12.094;2023-11-21T12:36:55;6.63;;;5.20;;
18286;SDS011;9269;50.838;12.094;2023-11-21T12:39:24;8.20;;;5.27;;
18286;SDS011;9269;50.838;12.094;2023-11-21T12:41:52;4.40;;;4.00;;
18286;SDS011;9269;50.838;12.094;2023-11-21T12:44:21;4.93;;;4.27;;
18286;SDS011;9269;50.838;12.094;2023-11-21T12:46:50;5.33;;;4.40;;
18286;SDS011;9269;50.838;12.094;2023-11-21T12:49:20;5.73;;;4.37;;
18286;SDS011;9269;50.838;12.094;2023-11-21T12:51:49;8.40;;;5.20;;
18286;SDS011;9269;50.838;12.094;2023-11-21T12:54:19;8.53;;;4.90;;
18286;SDS011;9269;50.838;12.094;2023-11-21T12:56:48;10.10;;;5.53;;
18286;SDS011;9269;50.838;12.094;2023-11-21T12:59:17;5.30;;;4.47;;
18286;SDS011;9269;50.838;12.094;2023-11-21T13:01:48;6.57;;;4.47;;
18286;SDS011;9269;50.838;12.094;2023-11-21T13:04:18;6.87;;;4.60;;
18286;SDS011;9269;50.838;12.094;2023-11-21T13:06:47;6.97;;;4.20;;
18286;SDS011;9269;50.838;12.094;2023-11-21T13:09:15;5.17;;;4.00;;
18286;SDS011;9269;50.838;12.094;2023-11-21T13:11:50;6.13;;;4.00;;
18286;SDS011;9269;50.838;12.094;2023-11-21T13:14:29;4.33;;;3.73;;
18286;SDS011;9269;50.838;12.094;2023-11-21T13:17:01;4.20;;;3.47;;
18286;SDS011;9269;50.838;12.094;2023-11-21T13:19:32;4.33;;;3.50;;
18286;SDS011;9269;50.838;12.094;2023-11-21T13:22:04;4.43;;;3.63;;
18286;SDS011;9269;50.838;12.094;2023-11-21T13:24:36;6.10;;;4.67;;
18286;SDS011;9269;50.838;12.094;2023-11-21T13:27:09;6.77;;;5.27;;
18286;SDS011;9269;50.838;12.094;2023-11-21T13:29:38;6.20;;;5.13;;
18286;SDS011;9269;50.838;12.094;2023-11-21T13:32:06;8.90;;;5.57;;
18286;SDS011;9269;50.838;12.094;2023-11-21T13:34:38;6.50;;;5.60;;
18286;SDS011;9269;50.838;12.094;2023-11-21T13:37:14;8.50;;;7.37;;
18286;SDS011;9269;50.838;12.094;2023-11-21T13:39:46;9.20;;;7.87;;
18286;SDS011;9269;50.838;12.094;2023-11-21T13:42:24;9.90;;;7.90;;
18286;SDS011;9269;50.838;12.094;2023-11-21T13:44:56;10.53;;;7.80;;
18286;SDS011;9269;50.838;12.094;2023-11-21T13:47:24;11.73;;;9.77;;
18286;SDS011;9269;50.838;12.094;2023-11-21T13:49:57;11.93;;;9.90;;
18286;SDS011;9269;50.838;12.094;2023-11-21T13:52:27;11.63;;;9.20;;
18286;SDS011;9269;50.838;12.094;2023-11-21T13:54:59;11.30;;;9.33;;
18286;SDS011;9269;50.838;12.094;2023-11-21T13:57:34;11.77;;;9.10;;
18286;SDS011;9269;50.838;12.094;2023-11-21T14:00:03;9.40;;;8.37;;
18286;SDS011;9269;50.838;12.094;2023-11-21T14:02:37;10.30;;;8.63;;
18286;SDS011;9269;50.838;12.094;2023-11-21T14:05:09;10.20;;;9.10;;
18286;SDS011;9269;50.838;12.094;2023-11-21T14:07:50;10.93;;;9.47;;
18286;SDS011;9269;50.838;12.094;2023-11-21T14:10:19;9.33;;;8.37;;
18286;SDS011;9269;50.838;12.094;2023-11-21T14:12:52;9.67;;;7.63;;
18286;SDS011;9269;50.838;12.094;2023-11-21T14:15:20;9.10;;;7.70;;
18286;SDS011;9269;50.838;12.094;2023-11-21T14:17:49;8.83;;;7.87;;
18286;SDS011;9269;50.838;12.094;2023-11-21T14:20:17;9.43;;;7.47;;
18286;SDS011;9269;50.838;12.094;2023-11-21T14:22:47;8.33;;;7.00;;
18286;SDS011;9269;50.838;12.094;2023-11-21T14:25:16;7.17;;;6.33;;
18286;SDS011;9269;50.838;12.094;2023-11-21T14:27:45;7.60;;;6.30;;
18286;SDS011;9269;50.838;12.094;2023-11-21T14:30:15;7.40;;;5.77;;
18286;SDS011;9269;50.838;12.094;2023-11-21T14:32:46;4.23;;;3.47;;
18286;SDS011;9269;50.838;12.094;2023-11-21T14:35:20;3.23;;;2.80;;
18286;SDS011;9269;50.838;12.094;2023-11-21T14:37:51;3.97;;;2.97;;
18286;SDS011;9269;50.838;12.094;2023-11-21T14:40:20;2.90;;;2.50;;
18286;SDS011;9269;50.838;12.094;2023-11-21T14:42:51;2.73;;;2.33;;
18286;SDS011;9269;50.838;12.094;2023-11-21T14:45:25;3.17;;;2.60;;
18286;SDS011;9269;50.838;12.094;2023-11-21T14:47:57;2.60;;;2.40;;
18286;SDS011;9269;50.838;12.094;2023-11-21T14:50:34;2.60;;;2.40;;
18286;SDS011;9269;50.838;12.094;2023-11-21T14:53:16;2.93;;;2.53;;
18286;SDS011;9269;50.838;12.094;2023-11-21T14:55:55;3.13;;;2.87;;
18286;SDS011;9269;50.838;12.094;2023-11-21T14:58:27;3.70;;;2.77;;
18286;SDS011;9269;50.838;12.094;2023-11-21T15:01:15;2.83;;;2.60;;
18286;SDS011;9269;50.838;12.094;2023-11-21T15:03:53;5.10;;;4.40;;
18286;SDS011;9269;50.838;12.094;2023-11-21T15:06:22;7.30;;;5.30;;
18286;SDS011;9269;50.838;12.094;2023-11-21T15:08:55;6.97;;;5.33;;
18286;SDS011;9269;50.838;12.094;2023-11-21T15:11:43;8.83;;;6.43;;